sensor_id;sensor_type;location;lat;lon;timestamp;P1;durP1;ratioP1;P2;durP2;ratioP2
34725;SDS011;20951;50.818;4.344;2023-06-14T00:00:58;14.48;;;5.80;;
34725;SDS011;20951;50.818;4.344;2023-06-14T00:03:25;7.75;;;4.93;;
34725;SDS011;20951;50.818;4.344;2023-06-14T00:05:51;10.70;;;5.35;;
34725;SDS011;20951;50.818;4.344;2023-06-14T00:08:17;8.82;;;5.40;;
34725;SDS011;20951;50.818;4.344;2023-06-14T00:10:44;10.27;;;6.03;;
34725;SDS011;20951;50.818;4.344;2023-06-14T00:13:10;11.90;;;5.78;;
34725;SDS011;20951;50.818;4.344;2023-06-14T00:15:37;10.38;;;5.57;;
34725;SDS011;20951;50.818;4.344;2023-06-14T00:18:04;9.48;;;5.75;;
34725;SDS011;20951;50.818;4.344;2023-06-14T00:20:31;8.88;;;5.43;;
34725;SDS011;20951;50.818;4.344;2023-06-14T00:23:01;10.57;;;5.63;;
34725;SDS011;20951;50.818;4.344;2023-06-14T00:25:28;11.15;;;5.47;;
34725;SDS011;20951;50.818;4.344;2023-06-14T00:27:54;13.48;;;5.80;;
34725;SDS011;20951;50.818;4.344;2023-06-14T00:30:21;10.25;;;5.63;;
34725;SDS011;20951;50.818;4.344;2023-06-14T00:32:47;10.48;;;5.35;;
34725;SDS011;20951;50.818;4.344;2023-06-14T00:35:14;6.47;;;5.25;;
34725;SDS011;20951;50.818;4.344;2023-06-14T00:37:40;9.65;;;5.72;;
34725;SDS011;20951;50.818;4.344;2023-06-14T01:03:22;14.20;;;5.70;;
34725;SDS011;20951;50.818;4.344;2023-06-14T01:05:56;8.40;;;5.97;;
34725;SDS011;20951;50.818;4.344;2023-06-14T01:08:40;9.52;;;6.15;;
34725;SDS011;20951;50.818;4.344;2023-06-14T01:11:18;7.85;;;6.03;;
34725;SDS011;20951;50.818;4.344;2023-06-14T01:13:53;13.27;;;6.38;;
34725;SDS011;20951;50.818;4.344;2023-06-14T01:16:21;9.32;;;5.97;;
34725;SDS011;20951;50.818;4.344;2023-06-14T01:18:47;9.95;;;6.65;;
34725;SDS011;20951;50.818;4.344;2023-06-14T01:21:25;10.30;;;6.30;;
34725;SDS011;20951;50.818;4.344;2023-06-14T01:23:53;11.07;;;6.55;;
34725;SDS011;20951;50.818;4.344;2023-06-14T01:26:20;12.38;;;5.95;;
34725;SDS011;20951;50.818;4.344;2023-06-14T01:28:48;10.82;;;6.13;;
34725;SDS011;20951;50.818;4.344;2023-06-14T01:31:18;8.05;;;6.20;;
34725;SDS011;20951;50.818;4.344;2023-06-14T01:33:46;10.48;;;5.90;;
34725;SDS011;20951;50.818;4.344;2023-06-14T01:36:16;9.43;;;6.03;;
34725;SDS011;20951;50.818;4.344;2023-06-14T01:38:44;10.95;;;6.03;;
34725;SDS011;20951;50.818;4.344;2023-06-14T01:41:17;10.23;;;6.07;;
34725;SDS011;20951;50.818;4.344;2023-06-14T01:43:45;10.95;;;6.40;;
34725;SDS011;20951;50.818;4.344;2023-06-14T01:46:13;11.65;;;6.10;;
34725;SDS011;20951;50.818;4.344;2023-06-14T01:48:40;9.13;;;6.30;;
34725;SDS011;20951;50.818;4.344;2023-06-14T01:51:07;10.15;;;6.40;;
34725;SDS011;20951;50.818;4.344;2023-06-14T01:53:33;10.75;;;6.65;;
34725;SDS011;20951;50.818;4.344;2023-06-14T01:55:59;9.75;;;6.50;;
34725;SDS011;20951;50.818;4.344;2023-06-14T01:58:29;12.27;;;6.70;;
34725;SDS011;20951;50.818;4.344;2023-06-14T02:00:56;10.90;;;6.78;;
34725;SDS011;20951;50.818;4.344;2023-06-14T02:03:22;13.40;;;6.85;;
34725;SDS011;20951;50.818;4.344;2023-06-14T02:05:49;10.40;;;6.75;;
34725;SDS011;20951;50.818;4.344;2023-06-14T02:08:15;9.95;;;6.95;;
34725;SDS011;20951;50.818;4.344;2023-06-14T02:10:44;15.18;;;6.68;;
34725;SDS011;20951;50.818;4.344;2023-06-14T02:13:10;9.68;;;6.43;;
34725;SDS011;20951;50.818;4.344;2023-06-14T02:15:37;12.73;;;7.00;;
34725;SDS011;20951;50.818;4.344;2023-06-14T02:18:03;9.27;;;6.70;;
34725;SDS011;20951;50.818;4.344;2023-06-14T02:20:33;12.82;;;6.53;;
34725;SDS011;20951;50.818;4.344;2023-06-14T02:22:59;15.27;;;7.25;;
34725;SDS011;20951;50.818;4.344;2023-06-14T02:25:26;12.38;;;6.75;;
34725;SDS011;20951;50.818;4.344;2023-06-14T02:27:55;11.20;;;7.00;;
34725;SDS011;20951;50.818;4.344;2023-06-14T02:30:24;12.38;;;7.13;;
34725;SDS011;20951;50.818;4.344;2023-06-14T02:32:52;10.27;;;6.72;;
34725;SDS011;20951;50.818;4.344;2023-06-14T02:35:18;11.05;;;6.70;;
34725;SDS011;20951;50.818;4.344;2023-06-14T02:37:45;13.90;;;7.53;;
34725;SDS011;20951;50.818;4.344;2023-06-14T02:40:12;11.43;;;7.28;;
34725;SDS011;20951;50.818;4.344;2023-06-14T02:42:38;11.95;;;7.18;;
34725;SDS011;20951;50.818;4.344;2023-06-14T02:45:05;13.80;;;7.40;;
34725;SDS011;20951;50.818;4.344;2023-06-14T02:47:31;14.13;;;8.93;;
34725;SDS011;20951;50.818;4.344;2023-06-14T02:49:57;13.18;;;7.28;;
34725;SDS011;20951;50.818;4.344;2023-06-14T02:52:24;10.80;;;7.72;;
34725;SDS011;20951;50.818;4.344;2023-06-14T02:54:50;12.57;;;7.50;;
34725;SDS011;20951;50.818;4.344;2023-06-14T02:57:17;11.20;;;7.32;;
34725;SDS011;20951;50.818;4.344;2023-06-14T02:59:43;12.20;;;7.65;;
34725;SDS011;20951;50.818;4.344;2023-06-14T03:02:09;11.85;;;7.85;;
34725;SDS011;20951;50.818;4.344;2023-06-14T03:04:36;11.10;;;8.25;;
34725;SDS011;20951;50.818;4.344;2023-06-14T03:07:06;14.75;;;7.97;;
34725;SDS011;20951;50.818;4.344;2023-06-14T03:09:35;13.20;;;7.78;;
34725;SDS011;20951;50.818;4.344;2023-06-14T03:12:02;12.65;;;7.95;;
34725;SDS011;20951;50.818;4.344;2023-06-14T03:14:29;9.85;;;8.07;;
34725;SDS011;20951;50.818;4.344;2023-06-14T03:16:56;12.15;;;8.40;;
34725;SDS011;20951;50.818;4.344;2023-06-14T03:19:23;14.15;;;8.82;;
34725;SDS011;20951;50.818;4.344;2023-06-14T03:21:49;11.65;;;7.90;;
34725;SDS011;20951;50.818;4.344;2023-06-14T03:24:15;15.15;;;8.50;;
34725;SDS011;20951;50.818;4.344;2023-06-14T03:26:42;14.52;;;8.38;;
34725;SDS011;20951;50.818;4.344;2023-06-14T03:29:08;12.18;;;8.27;;
34725;SDS011;20951;50.818;4.344;2023-06-14T03:31:35;12.18;;;8.27;;
34725;SDS011;20951;50.818;4.344;2023-06-14T03:34:02;15.40;;;8.63;;
34725;SDS011;20951;50.818;4.344;2023-06-14T03:36:28;12.20;;;8.02;;
34725;SDS011;20951;50.818;4.344;2023-06-14T03:38:54;13.70;;;8.80;;
34725;SDS011;20951;50.818;4.344;2023-06-14T03:41:21;11.77;;;8.38;;
34725;SDS011;20951;50.818;4.344;2023-06-14T03:43:47;8.73;;;7.60;;
34725;SDS011;20951;50.818;4.344;2023-06-14T03:46:13;13.30;;;9.07;;
34725;SDS011;20951;50.818;4.344;2023-06-14T03:48:40;13.45;;;8.52;;
34725;SDS011;20951;50.818;4.344;2023-06-14T03:51:07;12.25;;;8.50;;
34725;SDS011;20951;50.818;4.344;2023-06-14T03:53:33;11.45;;;8.20;;
34725;SDS011;20951;50.818;4.344;2023-06-14T03:56:01;12.88;;;8.40;;
34725;SDS011;20951;50.818;4.344;2023-06-14T03:58:30;14.40;;;8.27;;
34725;SDS011;20951;50.818;4.344;2023-06-14T04:00:57;13.63;;;8.43;;
34725;SDS011;20951;50.818;4.344;2023-06-14T04:03:24;13.38;;;9.10;;
34725;SDS011;20951;50.818;4.344;2023-06-14T04:05:54;11.48;;;8.95;;
34725;SDS011;20951;50.818;4.344;2023-06-14T04:08:22;10.00;;;8.27;;
34725;SDS011;20951;50.818;4.344;2023-06-14T04:10:49;12.27;;;8.43;;
34725;SDS011;20951;50.818;4.344;2023-06-14T04:13:16;13.25;;;8.65;;
34725;SDS011;20951;50.818;4.344;2023-06-14T04:15:42;15.52;;;8.68;;
34725;SDS011;20951;50.818;4.344;2023-06-14T04:18:11;11.82;;;8.40;;
34725;SDS011;20951;50.818;4.344;2023-06-14T04:20:38;12.02;;;7.90;;
34725;SDS011;20951;50.818;4.344;2023-06-14T04:23:12;12.32;;;7.97;;
34725;SDS011;20951;50.818;4.344;2023-06-14T04:25:40;11.43;;;7.72;;
34725;SDS011;20951;50.818;4.344;2023-06-14T04:28:09;10.55;;;8.25;;
34725;SDS011;20951;50.818;4.344;2023-06-14T04:30:36;11.32;;;8.13;;
34725;SDS011;20951;50.818;4.344;2023-06-14T04:33:04;12.70;;;8.77;;
34725;SDS011;20951;50.818;4.344;2023-06-14T04:35:31;12.52;;;8.00;;
34725;SDS011;20951;50.818;4.344;2023-06-14T04:38:01;12.85;;;8.52;;
34725;SDS011;20951;50.818;4.344;2023-06-14T04:40:30;13.52;;;8.13;;
34725;SDS011;20951;50.818;4.344;2023-06-14T04:42:56;13.27;;;7.80;;
34725;SDS011;20951;50.818;4.344;2023-06-14T04:45:23;11.07;;;8.00;;
34725;SDS011;20951;50.818;4.344;2023-06-14T04:47:49;11.88;;;8.68;;
34725;SDS011;20951;50.818;4.344;2023-06-14T04:50:25;13.45;;;8.07;;
34725;SDS011;20951;50.818;4.344;2023-06-14T04:52:52;13.70;;;8.65;;
34725;SDS011;20951;50.818;4.344;2023-06-14T04:55:19;11.98;;;8.65;;
34725;SDS011;20951;50.818;4.344;2023-06-14T04:57:46;13.27;;;8.25;;
34725;SDS011;20951;50.818;4.344;2023-06-14T05:00:15;12.25;;;8.23;;
34725;SDS011;20951;50.818;4.344;2023-06-14T05:02:42;12.55;;;8.60;;
34725;SDS011;20951;50.818;4.344;2023-06-14T05:05:08;11.75;;;8.68;;
34725;SDS011;20951;50.818;4.344;2023-06-14T05:07:34;12.80;;;8.27;;
34725;SDS011;20951;50.818;4.344;2023-06-14T05:10:01;12.38;;;7.85;;
34725;SDS011;20951;50.818;4.344;2023-06-14T05:12:27;14.82;;;7.97;;
34725;SDS011;20951;50.818;4.344;2023-06-14T05:14:54;10.93;;;8.20;;
34725;SDS011;20951;50.818;4.344;2023-06-14T05:17:23;16.40;;;9.23;;
34725;SDS011;20951;50.818;4.344;2023-06-14T05:19:49;15.75;;;8.73;;
34725;SDS011;20951;50.818;4.344;2023-06-14T05:22:15;11.38;;;8.57;;
34725;SDS011;20951;50.818;4.344;2023-06-14T05:24:42;12.13;;;8.30;;
34725;SDS011;20951;50.818;4.344;2023-06-14T05:27:08;13.05;;;8.90;;
34725;SDS011;20951;50.818;4.344;2023-06-14T05:29:37;14.15;;;8.90;;
34725;SDS011;20951;50.818;4.344;2023-06-14T05:32:03;14.27;;;9.63;;
34725;SDS011;20951;50.818;4.344;2023-06-14T05:34:30;15.60;;;8.48;;
34725;SDS011;20951;50.818;4.344;2023-06-14T05:36:59;12.93;;;8.65;;
34725;SDS011;20951;50.818;4.344;2023-06-14T05:39:30;15.50;;;8.75;;
34725;SDS011;20951;50.818;4.344;2023-06-14T05:42:06;11.75;;;8.00;;
34725;SDS011;20951;50.818;4.344;2023-06-14T05:44:37;12.13;;;7.95;;
34725;SDS011;20951;50.818;4.344;2023-06-14T05:47:08;12.43;;;7.97;;
34725;SDS011;20951;50.818;4.344;2023-06-14T05:49:40;15.27;;;8.63;;
34725;SDS011;20951;50.818;4.344;2023-06-14T05:52:11;13.35;;;8.23;;
34725;SDS011;20951;50.818;4.344;2023-06-14T05:54:43;15.68;;;8.27;;
34725;SDS011;20951;50.818;4.344;2023-06-14T05:57:14;13.60;;;9.05;;
34725;SDS011;20951;50.818;4.344;2023-06-14T05:59:47;12.85;;;8.75;;
34725;SDS011;20951;50.818;4.344;2023-06-14T06:02:19;12.48;;;8.85;;
34725;SDS011;20951;50.818;4.344;2023-06-14T06:04:51;12.63;;;8.18;;
34725;SDS011;20951;50.818;4.344;2023-06-14T06:07:23;13.02;;;7.95;;
34725;SDS011;20951;50.818;4.344;2023-06-14T06:09:55;11.18;;;7.53;;
34725;SDS011;20951;50.818;4.344;2023-06-14T06:12:26;13.73;;;8.25;;
34725;SDS011;20951;50.818;4.344;2023-06-14T06:15:00;14.50;;;8.02;;
34725;SDS011;20951;50.818;4.344;2023-06-14T06:17:31;12.65;;;7.70;;
34725;SDS011;20951;50.818;4.344;2023-06-14T06:20:02;13.68;;;8.15;;
34725;SDS011;20951;50.818;4.344;2023-06-14T06:22:30;25.17;;;7.68;;
34725;SDS011;20951;50.818;4.344;2023-06-14T06:24:56;12.38;;;7.28;;
34725;SDS011;20951;50.818;4.344;2023-06-14T06:27:28;14.82;;;7.20;;
34725;SDS011;20951;50.818;4.344;2023-06-14T06:29:59;10.68;;;7.13;;
34725;SDS011;20951;50.818;4.344;2023-06-14T06:32:30;11.20;;;7.15;;
34725;SDS011;20951;50.818;4.344;2023-06-14T06:35:04;13.77;;;7.15;;
34725;SDS011;20951;50.818;4.344;2023-06-14T06:37:36;13.85;;;7.10;;
34725;SDS011;20951;50.818;4.344;2023-06-14T06:40:07;15.00;;;6.40;;
34725;SDS011;20951;50.818;4.344;2023-06-14T06:42:38;14.50;;;7.20;;
34725;SDS011;20951;50.818;4.344;2023-06-14T06:45:10;15.60;;;6.80;;
34725;SDS011;20951;50.818;4.344;2023-06-14T06:47:41;9.25;;;6.50;;
34725;SDS011;20951;50.818;4.344;2023-06-14T06:50:13;11.30;;;6.90;;
34725;SDS011;20951;50.818;4.344;2023-06-14T06:52:45;9.80;;;6.05;;
34725;SDS011;20951;50.818;4.344;2023-06-14T06:55:16;12.75;;;6.53;;
34725;SDS011;20951;50.818;4.344;2023-06-14T06:57:47;12.88;;;6.30;;
34725;SDS011;20951;50.818;4.344;2023-06-14T07:00:20;12.57;;;6.30;;
34725;SDS011;20951;50.818;4.344;2023-06-14T07:02:51;12.50;;;6.57;;
34725;SDS011;20951;50.818;4.344;2023-06-14T07:05:22;9.13;;;6.05;;
34725;SDS011;20951;50.818;4.344;2023-06-14T07:07:54;8.93;;;5.80;;
34725;SDS011;20951;50.818;4.344;2023-06-14T07:10:25;10.38;;;5.13;;
34725;SDS011;20951;50.818;4.344;2023-06-14T07:12:57;10.25;;;5.50;;
34725;SDS011;20951;50.818;4.344;2023-06-14T07:15:29;11.07;;;5.88;;
34725;SDS011;20951;50.818;4.344;2023-06-14T07:18:01;10.38;;;5.70;;
34725;SDS011;20951;50.818;4.344;2023-06-14T07:20:36;11.63;;;5.68;;
34725;SDS011;20951;50.818;4.344;2023-06-14T07:23:08;15.68;;;5.88;;
34725;SDS011;20951;50.818;4.344;2023-06-14T07:25:43;8.27;;;5.22;;
34725;SDS011;20951;50.818;4.344;2023-06-14T07:28:15;11.38;;;4.80;;
34725;SDS011;20951;50.818;4.344;2023-06-14T07:30:50;10.63;;;5.22;;
34725;SDS011;20951;50.818;4.344;2023-06-14T07:33:22;8.57;;;4.85;;
34725;SDS011;20951;50.818;4.344;2023-06-14T07:35:53;8.70;;;5.22;;
34725;SDS011;20951;50.818;4.344;2023-06-14T07:38:24;11.77;;;5.10;;
34725;SDS011;20951;50.818;4.344;2023-06-14T07:40:56;9.23;;;5.10;;
34725;SDS011;20951;50.818;4.344;2023-06-14T07:43:28;13.50;;;5.00;;
34725;SDS011;20951;50.818;4.344;2023-06-14T07:46:01;10.32;;;5.28;;
34725;SDS011;20951;50.818;4.344;2023-06-14T07:48:33;14.00;;;5.07;;
34725;SDS011;20951;50.818;4.344;2023-06-14T07:51:06;11.55;;;4.57;;
34725;SDS011;20951;50.818;4.344;2023-06-14T07:53:37;7.85;;;4.45;;
34725;SDS011;20951;50.818;4.344;2023-06-14T07:56:09;10.20;;;5.05;;
34725;SDS011;20951;50.818;4.344;2023-06-14T07:58:41;10.57;;;4.80;;
34725;SDS011;20951;50.818;4.344;2023-06-14T08:01:13;11.90;;;4.47;;
34725;SDS011;20951;50.818;4.344;2023-06-14T08:03:45;10.02;;;4.78;;
34725;SDS011;20951;50.818;4.344;2023-06-14T08:06:17;11.25;;;5.10;;
34725;SDS011;20951;50.818;4.344;2023-06-14T08:08:49;10.15;;;4.80;;
34725;SDS011;20951;50.818;4.344;2023-06-14T08:11:21;12.10;;;5.15;;
34725;SDS011;20951;50.818;4.344;2023-06-14T08:13:54;8.93;;;5.45;;
34725;SDS011;20951;50.818;4.344;2023-06-14T08:16:26;10.45;;;5.35;;
34725;SDS011;20951;50.818;4.344;2023-06-14T08:18:58;8.80;;;4.60;;
34725;SDS011;20951;50.818;4.344;2023-06-14T08:21:29;11.32;;;5.07;;
34725;SDS011;20951;50.818;4.344;2023-06-14T08:24:01;9.35;;;4.97;;
34725;SDS011;20951;50.818;4.344;2023-06-14T08:26:32;11.55;;;6.35;;
34725;SDS011;20951;50.818;4.344;2023-06-14T08:29:04;9.35;;;5.18;;
34725;SDS011;20951;50.818;4.344;2023-06-14T08:31:35;11.77;;;4.68;;
34725;SDS011;20951;50.818;4.344;2023-06-14T08:34:07;8.52;;;4.60;;
34725;SDS011;20951;50.818;4.344;2023-06-14T08:36:39;7.15;;;4.40;;
34725;SDS011;20951;50.818;4.344;2023-06-14T08:39:10;8.80;;;4.55;;
34725;SDS011;20951;50.818;4.344;2023-06-14T08:41:46;14.82;;;5.07;;
34725;SDS011;20951;50.818;4.344;2023-06-14T08:44:17;12.15;;;4.50;;
34725;SDS011;20951;50.818;4.344;2023-06-14T08:46:48;12.60;;;5.82;;
34725;SDS011;20951;50.818;4.344;2023-06-14T08:49:18;11.75;;;7.32;;
34725;SDS011;20951;50.818;4.344;2023-06-14T08:51:50;11.82;;;5.20;;
34725;SDS011;20951;50.818;4.344;2023-06-14T08:54:29;13.02;;;6.05;;
34725;SDS011;20951;50.818;4.344;2023-06-14T08:57:02;10.88;;;5.28;;
34725;SDS011;20951;50.818;4.344;2023-06-14T08:59:33;9.20;;;5.20;;
34725;SDS011;20951;50.818;4.344;2023-06-14T09:02:05;9.65;;;4.78;;
34725;SDS011;20951;50.818;4.344;2023-06-14T09:04:38;9.05;;;4.68;;
34725;SDS011;20951;50.818;4.344;2023-06-14T09:07:10;9.10;;;4.72;;
34725;SDS011;20951;50.818;4.344;2023-06-14T09:09:40;10.10;;;5.05;;
34725;SDS011;20951;50.818;4.344;2023-06-14T09:12:11;10.50;;;5.57;;
34725;SDS011;20951;50.818;4.344;2023-06-14T09:14:42;9.60;;;4.93;;
34725;SDS011;20951;50.818;4.344;2023-06-14T09:17:13;15.95;;;5.38;;
34725;SDS011;20951;50.818;4.344;2023-06-14T09:19:45;10.38;;;5.18;;
34725;SDS011;20951;50.818;4.344;2023-06-14T09:22:16;10.27;;;5.20;;
34725;SDS011;20951;50.818;4.344;2023-06-14T09:24:48;8.73;;;5.00;;
34725;SDS011;20951;50.818;4.344;2023-06-14T09:27:20;10.68;;;5.10;;
34725;SDS011;20951;50.818;4.344;2023-06-14T09:29:53;9.90;;;5.30;;
34725;SDS011;20951;50.818;4.344;2023-06-14T09:32:25;13.32;;;6.15;;
34725;SDS011;20951;50.818;4.344;2023-06-14T09:34:57;11.38;;;5.70;;
34725;SDS011;20951;50.818;4.344;2023-06-14T09:37:30;9.40;;;4.80;;
34725;SDS011;20951;50.818;4.344;2023-06-14T09:40:03;13.80;;;5.10;;
34725;SDS011;20951;50.818;4.344;2023-06-14T09:42:35;10.02;;;4.90;;
34725;SDS011;20951;50.818;4.344;2023-06-14T09:45:06;11.60;;;4.70;;
34725;SDS011;20951;50.818;4.344;2023-06-14T09:47:38;9.93;;;5.10;;
34725;SDS011;20951;50.818;4.344;2023-06-14T09:50:10;12.98;;;4.70;;
34725;SDS011;20951;50.818;4.344;2023-06-14T09:52:43;9.50;;;4.55;;
34725;SDS011;20951;50.818;4.344;2023-06-14T09:55:13;7.18;;;4.68;;
34725;SDS011;20951;50.818;4.344;2023-06-14T09:57:44;8.65;;;4.68;;
34725;SDS011;20951;50.818;4.344;2023-06-14T10:00:16;11.90;;;5.18;;
34725;SDS011;20951;50.818;4.344;2023-06-14T10:02:49;12.50;;;4.85;;
34725;SDS011;20951;50.818;4.344;2023-06-14T10:05:24;8.90;;;4.60;;
34725;SDS011;20951;50.818;4.344;2023-06-14T10:07:56;9.07;;;4.45;;
34725;SDS011;20951;50.818;4.344;2023-06-14T10:10:25;8.50;;;4.40;;
34725;SDS011;20951;50.818;4.344;2023-06-14T10:12:56;7.30;;;4.55;;
34725;SDS011;20951;50.818;4.344;2023-06-14T10:16:31;12.38;;;4.80;;
34725;SDS011;20951;50.818;4.344;2023-06-14T10:21:22;9.07;;;4.47;;
34725;SDS011;20951;50.818;4.344;2023-06-14T10:23:51;14.13;;;4.47;;
34725;SDS011;20951;50.818;4.344;2023-06-14T10:26:23;13.52;;;4.50;;
34725;SDS011;20951;50.818;4.344;2023-06-14T10:28:59;7.85;;;4.25;;
34725;SDS011;20951;50.818;4.344;2023-06-14T10:31:45;12.02;;;4.22;;
34725;SDS011;20951;50.818;4.344;2023-06-14T10:34:23;13.55;;;4.55;;
34725;SDS011;20951;50.818;4.344;2023-06-14T10:37:12;8.70;;;5.00;;
34725;SDS011;20951;50.818;4.344;2023-06-14T10:39:39;11.75;;;4.80;;
34725;SDS011;20951;50.818;4.344;2023-06-14T10:42:07;10.70;;;5.07;;
34725;SDS011;20951;50.818;4.344;2023-06-14T10:47:26;9.35;;;4.97;;
34725;SDS011;20951;50.818;4.344;2023-06-14T10:49:55;16.55;;;4.88;;
34725;SDS011;20951;50.818;4.344;2023-06-14T10:52:34;12.75;;;4.60;;
34725;SDS011;20951;50.818;4.344;2023-06-14T10:55:05;11.20;;;4.68;;
34725;SDS011;20951;50.818;4.344;2023-06-14T10:57:47;11.85;;;4.80;;
34725;SDS011;20951;50.818;4.344;2023-06-14T11:00:21;7.95;;;4.88;;
34725;SDS011;20951;50.818;4.344;2023-06-14T11:03:02;8.55;;;4.15;;
34725;SDS011;20951;50.818;4.344;2023-06-14T11:05:55;7.25;;;4.80;;
34725;SDS011;20951;50.818;4.344;2023-06-14T11:11:10;13.05;;;4.47;;
34725;SDS011;20951;50.818;4.344;2023-06-14T11:13:38;7.70;;;4.30;;
34725;SDS011;20951;50.818;4.344;2023-06-14T11:16:11;8.23;;;4.10;;
34725;SDS011;20951;50.818;4.344;2023-06-14T11:18:40;9.70;;;4.22;;
34725;SDS011;20951;50.818;4.344;2023-06-14T11:21:07;9.63;;;4.10;;
34725;SDS011;20951;50.818;4.344;2023-06-14T11:23:36;7.30;;;4.53;;
34725;SDS011;20951;50.818;4.344;2023-06-14T11:26:02;9.48;;;3.90;;
34725;SDS011;20951;50.818;4.344;2023-06-14T11:28:39;11.55;;;4.32;;
34725;SDS011;20951;50.818;4.344;2023-06-14T11:31:06;8.82;;;3.97;;
34725;SDS011;20951;50.818;4.344;2023-06-14T11:33:33;11.75;;;3.95;;
34725;SDS011;20951;50.818;4.344;2023-06-14T11:36:03;9.40;;;4.22;;
34725;SDS011;20951;50.818;4.344;2023-06-14T11:38:36;7.85;;;3.67;;
34725;SDS011;20951;50.818;4.344;2023-06-14T11:41:02;8.52;;;3.85;;
34725;SDS011;20951;50.818;4.344;2023-06-14T11:43:29;8.43;;;3.97;;
34725;SDS011;20951;50.818;4.344;2023-06-14T11:45:56;22.90;;;4.80;;
34725;SDS011;20951;50.818;4.344;2023-06-14T11:48:23;8.88;;;3.80;;
34725;SDS011;20951;50.818;4.344;2023-06-14T11:51:00;9.15;;;4.35;;
34725;SDS011;20951;50.818;4.344;2023-06-14T11:53:34;6.63;;;3.88;;
34725;SDS011;20951;50.818;4.344;2023-06-14T11:56:07;12.70;;;4.22;;
34725;SDS011;20951;50.818;4.344;2023-06-14T11:58:44;9.55;;;3.50;;
34725;SDS011;20951;50.818;4.344;2023-06-14T12:01:16;6.63;;;4.10;;
34725;SDS011;20951;50.818;4.344;2023-06-14T12:03:48;9.07;;;3.90;;
34725;SDS011;20951;50.818;4.344;2023-06-14T12:06:27;9.27;;;3.90;;
34725;SDS011;20951;50.818;4.344;2023-06-14T12:09:04;7.63;;;3.85;;
34725;SDS011;20951;50.818;4.344;2023-06-14T12:11:38;12.63;;;4.93;;
34725;SDS011;20951;50.818;4.344;2023-06-14T12:14:11;11.38;;;4.05;;
34725;SDS011;20951;50.818;4.344;2023-06-14T12:16:44;6.72;;;3.88;;
34725;SDS011;20951;50.818;4.344;2023-06-14T12:19:17;7.13;;;3.67;;
34725;SDS011;20951;50.818;4.344;2023-06-14T12:21:49;7.13;;;3.78;;
34725;SDS011;20951;50.818;4.344;2023-06-14T12:24:21;12.40;;;3.85;;
34725;SDS011;20951;50.818;4.344;2023-06-14T12:27:00;9.45;;;3.78;;
34725;SDS011;20951;50.818;4.344;2023-06-14T12:29:32;11.80;;;3.58;;
34725;SDS011;20951;50.818;4.344;2023-06-14T12:34:34;6.97;;;3.30;;
34725;SDS011;20951;50.818;4.344;2023-06-14T12:37:01;11.07;;;3.70;;
34725;SDS011;20951;50.818;4.344;2023-06-14T12:39:29;6.78;;;3.55;;
34725;SDS011;20951;50.818;4.344;2023-06-14T12:41:56;9.00;;;3.47;;
34725;SDS011;20951;50.818;4.344;2023-06-14T12:44:23;6.50;;;3.67;;
34725;SDS011;20951;50.818;4.344;2023-06-14T12:46:49;6.53;;;3.25;;
34725;SDS011;20951;50.818;4.344;2023-06-14T12:49:18;8.25;;;3.20;;
34725;SDS011;20951;50.818;4.344;2023-06-14T12:51:45;7.45;;;3.28;;
34725;SDS011;20951;50.818;4.344;2023-06-14T12:54:12;8.45;;;3.20;;
34725;SDS011;20951;50.818;4.344;2023-06-14T12:56:39;9.88;;;3.42;;
34725;SDS011;20951;50.818;4.344;2023-06-14T12:59:19;9.05;;;3.17;;
34725;SDS011;20951;50.818;4.344;2023-06-14T13:02:16;8.63;;;3.30;;
34725;SDS011;20951;50.818;4.344;2023-06-14T13:05:23;7.63;;;3.30;;
34725;SDS011;20951;50.818;4.344;2023-06-14T13:07:52;6.27;;;3.40;;
34725;SDS011;20951;50.818;4.344;2023-06-14T13:10:18;8.27;;;3.13;;
34725;SDS011;20951;50.818;4.344;2023-06-14T13:12:44;9.10;;;2.95;;
34725;SDS011;20951;50.818;4.344;2023-06-14T13:15:11;10.52;;;3.10;;
34725;SDS011;20951;50.818;4.344;2023-06-14T13:17:37;5.75;;;2.90;;
34725;SDS011;20951;50.818;4.344;2023-06-14T13:20:05;7.45;;;3.05;;
34725;SDS011;20951;50.818;4.344;2023-06-14T13:22:38;7.55;;;2.80;;
34725;SDS011;20951;50.818;4.344;2023-06-14T13:25:08;7.40;;;2.85;;
34725;SDS011;20951;50.818;4.344;2023-06-14T13:27:35;7.95;;;3.25;;
34725;SDS011;20951;50.818;4.344;2023-06-14T13:30:06;6.30;;;2.85;;
34725;SDS011;20951;50.818;4.344;2023-06-14T13:39:40;11.20;;;3.05;;
34725;SDS011;20951;50.818;4.344;2023-06-14T13:42:51;14.75;;;3.75;;
34725;SDS011;20951;50.818;4.344;2023-06-14T13:46:37;8.52;;;3.08;;
34725;SDS011;20951;50.818;4.344;2023-06-14T13:50:09;9.93;;;2.80;;
34725;SDS011;20951;50.818;4.344;2023-06-14T13:53:00;4.75;;;2.70;;
34725;SDS011;20951;50.818;4.344;2023-06-14T13:55:45;4.30;;;2.67;;
34725;SDS011;20951;50.818;4.344;2023-06-14T13:59:04;7.53;;;2.55;;
34725;SDS011;20951;50.818;4.344;2023-06-14T14:02:15;9.05;;;2.90;;
34725;SDS011;20951;50.818;4.344;2023-06-14T14:05:54;7.53;;;2.80;;
34725;SDS011;20951;50.818;4.344;2023-06-14T14:09:01;8.18;;;2.92;;
34725;SDS011;20951;50.818;4.344;2023-06-14T14:11:32;8.27;;;2.65;;
34725;SDS011;20951;50.818;4.344;2023-06-14T14:14:05;9.55;;;3.05;;
34725;SDS011;20951;50.818;4.344;2023-06-14T14:16:36;9.68;;;2.97;;
34725;SDS011;20951;50.818;4.344;2023-06-14T14:19:09;6.22;;;2.40;;
34725;SDS011;20951;50.818;4.344;2023-06-14T14:21:46;7.10;;;2.28;;
34725;SDS011;20951;50.818;4.344;2023-06-14T14:24:27;4.82;;;2.40;;
34725;SDS011;20951;50.818;4.344;2023-06-14T14:26:59;5.60;;;2.05;;
34725;SDS011;20951;50.818;4.344;2023-06-14T14:29:30;4.57;;;2.00;;
34725;SDS011;20951;50.818;4.344;2023-06-14T14:32:01;4.45;;;2.20;;
34725;SDS011;20951;50.818;4.344;2023-06-14T14:34:44;6.88;;;2.50;;
34725;SDS011;20951;50.818;4.344;2023-06-14T14:37:15;4.10;;;1.87;;
34725;SDS011;20951;50.818;4.344;2023-06-14T14:39:46;7.03;;;2.00;;
34725;SDS011;20951;50.818;4.344;2023-06-14T14:42:18;4.82;;;2.00;;
34725;SDS011;20951;50.818;4.344;2023-06-14T14:44:49;7.85;;;2.00;;
34725;SDS011;20951;50.818;4.344;2023-06-14T14:47:20;5.85;;;1.90;;
34725;SDS011;20951;50.818;4.344;2023-06-14T14:49:50;4.60;;;1.98;;
34725;SDS011;20951;50.818;4.344;2023-06-14T14:52:22;5.38;;;1.70;;
34725;SDS011;20951;50.818;4.344;2023-06-14T14:54:55;6.63;;;2.28;;
34725;SDS011;20951;50.818;4.344;2023-06-14T14:57:26;7.95;;;1.80;;
34725;SDS011;20951;50.818;4.344;2023-06-14T14:59:57;4.95;;;1.80;;
34725;SDS011;20951;50.818;4.344;2023-06-14T15:02:29;7.07;;;1.75;;
34725;SDS011;20951;50.818;4.344;2023-06-14T15:07:58;5.72;;;1.90;;
34725;SDS011;20951;50.818;4.344;2023-06-14T15:10:29;4.30;;;1.73;;
34725;SDS011;20951;50.818;4.344;2023-06-14T15:13:07;3.00;;;1.52;;
34725;SDS011;20951;50.818;4.344;2023-06-14T15:15:37;4.53;;;2.15;;
34725;SDS011;20951;50.818;4.344;2023-06-14T15:18:04;5.05;;;1.92;;
34725;SDS011;20951;50.818;4.344;2023-06-14T15:20:30;4.55;;;2.13;;
34725;SDS011;20951;50.818;4.344;2023-06-14T15:23:02;6.60;;;1.90;;
34725;SDS011;20951;50.818;4.344;2023-06-14T15:25:28;20.67;;;3.53;;
34725;SDS011;20951;50.818;4.344;2023-06-14T15:27:59;5.28;;;2.00;;
34725;SDS011;20951;50.818;4.344;2023-06-14T15:30:26;6.80;;;2.15;;
34725;SDS011;20951;50.818;4.344;2023-06-14T15:32:52;7.40;;;2.17;;
34725;SDS011;20951;50.818;4.344;2023-06-14T15:35:18;9.05;;;2.20;;
34725;SDS011;20951;50.818;4.344;2023-06-14T15:37:44;8.77;;;2.00;;
34725;SDS011;20951;50.818;4.344;2023-06-14T15:40:13;7.40;;;1.90;;
34725;SDS011;20951;50.818;4.344;2023-06-14T15:42:39;5.95;;;1.90;;
34725;SDS011;20951;50.818;4.344;2023-06-14T15:45:06;6.35;;;2.10;;
34725;SDS011;20951;50.818;4.344;2023-06-14T15:47:32;3.90;;;1.70;;
34725;SDS011;20951;50.818;4.344;2023-06-14T15:50:03;6.40;;;2.15;;